createdAt,value
2023-05-24T00:00:13.213Z,1.88
2023-05-24T00:01:16.393Z,2.10
2023-05-24T00:02:20.064Z,1.95
2023-05-24T00:03:22.160Z,1.90
2023-05-24T00:04:25.890Z,1.60
2023-05-24T00:05:31.424Z,1.80
2023-05-24T00:06:34.988Z,1.80
2023-05-24T00:07:37.221Z,1.90
2023-05-24T00:08:40.082Z,1.90
2023-05-24T00:09:41.984Z,2.35
2023-05-24T00:10:44.987Z,2.13
2023-05-24T00:11:48.344Z,2.05
2023-05-24T00:12:51.207Z,2.33
2023-05-24T00:13:53.213Z,2.17
2023-05-24T00:14:56.104Z,2.08
2023-05-24T00:15:58.096Z,2.20
2023-05-24T00:17:01.138Z,2.17
2023-05-24T00:18:03.175Z,2.00
2023-05-24T00:19:06.023Z,2.15
2023-05-24T00:20:10.970Z,2.33
2023-05-24T00:21:14.366Z,2.70
2023-05-24T00:22:16.298Z,2.35
2023-05-24T00:23:19.136Z,1.92
2023-05-24T00:24:21.085Z,1.85
2023-05-24T00:25:24.025Z,2.20
2023-05-24T00:26:26.130Z,2.30
2023-05-24T00:27:30.340Z,1.98
2023-05-24T00:28:32.308Z,2.63
2023-05-24T00:29:35.481Z,2.35
2023-05-24T00:30:37.373Z,2.58
2023-05-24T00:31:40.240Z,1.90
2023-05-24T00:32:42.158Z,2.05
2023-05-24T00:33:44.996Z,2.17
2023-05-24T00:34:47.072Z,1.98
2023-05-24T00:35:51.710Z,2.00
2023-05-24T00:36:53.545Z,2.80
2023-05-24T00:37:57.135Z,2.00
2023-05-24T00:38:59.059Z,2.30
2023-05-24T00:40:01.892Z,2.25
2023-05-24T00:41:04.104Z,2.20
2023-05-24T00:42:07.495Z,2.45
2023-05-24T00:43:10.795Z,2.17
2023-05-24T00:44:13.670Z,2.20
2023-05-24T00:45:15.701Z,1.90
2023-05-24T00:46:22.187Z,2.55
2023-05-24T00:47:24.335Z,2.08
2023-05-24T00:48:28.823Z,1.83
2023-05-24T00:49:31.704Z,1.98
2023-05-24T00:50:33.930Z,2.25
2023-05-24T00:51:38.477Z,1.60
2023-05-24T00:52:41.785Z,1.83
2023-05-24T00:53:47.097Z,2.03
2023-05-24T00:54:49.126Z,1.40
2023-05-24T00:55:51.940Z,2.25
2023-05-24T00:56:54.896Z,1.88
2023-05-24T00:57:58.534Z,1.80
2023-05-24T00:59:02.042Z,1.90
2023-05-24T01:00:06.005Z,2.20
2023-05-24T01:01:08.465Z,2.00
2023-05-24T01:02:11.451Z,1.98
2023-05-24T01:03:14.014Z,2.05
2023-05-24T01:04:20.280Z,1.85
2023-05-24T01:05:23.612Z,2.22
2023-05-24T01:06:28.085Z,1.80
2023-05-24T01:07:39.381Z,1.90
2023-05-24T01:08:56.171Z,1.60
2023-05-24T01:10:06.419Z,2.30
2023-05-24T01:11:18.944Z,2.08
2023-05-24T01:12:27.564Z,1.83
2023-05-24T01:13:47.453Z,2.00
2023-05-24T01:14:59.255Z,2.13
2023-05-24T01:16:08.626Z,2.00
2023-05-24T01:17:18.366Z,1.95
2023-05-24T01:18:30.071Z,1.85
2023-05-24T01:19:53.152Z,2.20
2023-05-24T01:21:06.864Z,2.00
2023-05-24T01:22:24.276Z,2.05
2023-05-24T01:23:41.508Z,2.03
2023-05-24T01:24:53.797Z,2.58
2023-05-24T01:26:24.650Z,1.95
2023-05-24T01:27:29.109Z,1.92
2023-05-24T01:28:33.619Z,2.00
2023-05-24T01:29:36.337Z,2.38
2023-05-24T01:30:41.626Z,1.90
2023-05-24T01:31:44.003Z,2.42
2023-05-24T01:32:47.173Z,2.78
2023-05-24T01:33:49.029Z,2.65
2023-05-24T01:34:51.832Z,2.55
2023-05-24T01:35:53.721Z,2.35
2023-05-24T01:36:56.598Z,2.40
2023-05-24T01:37:58.482Z,2.22
2023-05-24T01:39:01.382Z,2.00
2023-05-24T01:40:04.439Z,1.80
2023-05-24T01:41:16.716Z,2.47
2023-05-24T01:42:26.196Z,2.50
2023-05-24T01:43:36.599Z,2.00
2023-05-24T01:44:43.334Z,2.55
2023-05-24T01:45:54.023Z,2.90
2023-05-24T01:47:02.701Z,2.20
2023-05-24T01:48:18.709Z,2.30
2023-05-24T01:49:27.122Z,2.67
2023-05-24T01:50:32.934Z,2.95
2023-05-24T01:51:42.482Z,2.40
2023-05-24T01:52:46.565Z,2.67
2023-05-24T01:53:51.640Z,2.47
2023-05-24T01:54:56.662Z,2.50
2023-05-24T01:56:02.152Z,2.53
2023-05-24T01:57:07.912Z,2.40
2023-05-24T01:58:12.096Z,2.42
2023-05-24T01:59:15.739Z,3.05
2023-05-24T02:00:20.179Z,3.15
2023-05-24T02:01:22.807Z,2.70
2023-05-24T02:02:26.061Z,3.30
2023-05-24T02:03:28.147Z,3.38
2023-05-24T02:04:31.301Z,2.67
2023-05-24T02:05:33.310Z,2.75
2023-05-24T02:06:36.175Z,2.80
2023-05-24T02:07:38.242Z,2.60
2023-05-24T02:08:41.137Z,2.67
2023-05-24T02:09:43.104Z,2.60
2023-05-24T02:10:46.198Z,2.90
2023-05-24T02:11:48.049Z,2.90
2023-05-24T02:12:51.122Z,2.28
2023-05-24T02:13:53.012Z,2.70
2023-05-24T02:14:57.231Z,2.50
2023-05-24T02:15:59.138Z,2.60
2023-05-24T02:17:02.819Z,2.78
2023-05-24T02:18:08.220Z,2.72
2023-05-24T02:19:11.185Z,3.20
2023-05-24T02:20:14.160Z,3.33
2023-05-24T02:21:17.026Z,2.50
2023-05-24T02:22:22.189Z,3.08
2023-05-24T02:23:25.247Z,3.35
2023-05-24T02:24:27.081Z,3.10
2023-05-24T02:25:29.902Z,3.70
2023-05-24T02:26:31.717Z,2.67
2023-05-24T02:27:34.579Z,2.35
2023-05-24T02:28:36.433Z,2.90
2023-05-24T02:29:39.316Z,3.03
2023-05-24T02:30:44.765Z,2.65
2023-05-24T02:31:50.583Z,2.95
2023-05-24T02:32:52.773Z,3.08
2023-05-24T02:33:56.189Z,3.40
2023-05-24T02:34:59.116Z,3.22
2023-05-24T02:36:02.252Z,2.70
2023-05-24T02:37:04.747Z,3.47
2023-05-24T02:38:07.597Z,2.72
2023-05-24T02:39:09.668Z,2.75
2023-05-24T02:40:13.411Z,2.83
2023-05-24T02:41:18.123Z,3.05
2023-05-24T02:42:21.008Z,3.20
2023-05-24T02:43:22.964Z,3.42
2023-05-24T02:44:25.868Z,2.97
2023-05-24T02:45:27.741Z,3.20
2023-05-24T02:46:31.900Z,2.85
2023-05-24T02:47:33.883Z,3.05
2023-05-24T02:48:36.752Z,2.83
2023-05-24T02:49:38.614Z,3.22
2023-05-24T02:50:41.708Z,3.55
2023-05-24T02:51:43.750Z,2.78
2023-05-24T02:52:46.554Z,3.60
2023-05-24T02:53:48.725Z,3.33
2023-05-24T02:54:51.584Z,2.97
2023-05-24T02:55:53.505Z,3.35
2023-05-24T02:56:57.872Z,2.53
2023-05-24T02:57:59.713Z,2.80
2023-05-24T02:59:02.830Z,2.92
2023-05-24T03:00:06.282Z,3.50
2023-05-24T03:01:09.261Z,3.38
2023-05-24T03:02:13.702Z,3.00
2023-05-24T03:03:16.834Z,3.13
2023-05-24T03:04:18.745Z,3.05
2023-05-24T03:05:21.716Z,2.72
2023-05-24T03:06:23.615Z,2.78
2023-05-24T03:07:26.499Z,2.65
2023-05-24T03:08:28.510Z,3.28
2023-05-24T03:09:31.358Z,2.95
2023-05-24T03:10:33.592Z,3.63
2023-05-24T03:11:36.429Z,3.25
2023-05-24T03:12:38.356Z,3.00
2023-05-24T03:13:41.218Z,2.85
2023-05-24T03:14:43.110Z,3.05
2023-05-24T03:15:46.572Z,2.63
2023-05-24T03:16:48.517Z,2.65
2023-05-24T03:17:52.780Z,2.88
2023-05-24T03:18:56.158Z,2.90
2023-05-24T03:19:58.991Z,2.88
2023-05-24T03:21:00.925Z,2.78
2023-05-24T03:22:03.895Z,3.08
2023-05-24T03:23:05.815Z,2.85
2023-05-24T03:24:09.528Z,3.45
2023-05-24T03:25:11.412Z,3.35
2023-05-24T03:26:14.205Z,2.78
2023-05-24T03:27:16.053Z,3.58
2023-05-24T03:28:19.044Z,2.85
2023-05-24T03:29:20.962Z,3.40
2023-05-24T03:30:23.822Z,2.78
2023-05-24T03:31:26.545Z,2.90
2023-05-24T03:32:29.663Z,3.50
2023-05-24T03:33:33.154Z,3.03
2023-05-24T03:34:36.038Z,3.03
2023-05-24T03:35:37.903Z,2.80
2023-05-24T03:36:40.811Z,3.20
2023-05-24T03:37:42.681Z,2.80
2023-05-24T03:38:45.531Z,3.15
2023-05-24T03:39:47.437Z,3.63
2023-05-24T03:40:50.363Z,3.65
2023-05-24T03:41:52.216Z,4.00
2023-05-24T03:42:55.051Z,3.65
2023-05-24T03:43:56.923Z,2.90
2023-05-24T03:44:59.853Z,3.25
2023-05-24T03:46:01.699Z,3.83
2023-05-24T03:47:04.744Z,2.85
2023-05-24T03:48:07.326Z,3.22
2023-05-24T03:49:11.476Z,3.63
2023-05-24T03:50:14.329Z,2.97
2023-05-24T03:51:17.297Z,3.35
2023-05-24T03:52:19.168Z,3.03
2023-05-24T03:53:23.274Z,2.63
2023-05-24T03:54:27.313Z,3.03
2023-05-24T03:55:30.158Z,3.42
2023-05-24T03:56:32.017Z,3.97
2023-05-24T03:57:34.914Z,3.10
2023-05-24T03:58:37.494Z,2.97
2023-05-24T03:59:41.330Z,3.03
2023-05-24T04:00:43.601Z,3.22
2023-05-24T04:01:46.779Z,3.40
2023-05-24T04:02:48.763Z,3.67
2023-05-24T04:03:55.931Z,3.03
2023-05-24T04:04:59.192Z,3.53
2023-05-24T04:06:02.110Z,4.25
2023-05-24T04:07:04.254Z,3.22
2023-05-24T04:08:07.084Z,3.38
2023-05-24T04:09:10.052Z,3.38
2023-05-24T04:10:12.964Z,3.20
2023-05-24T04:11:14.793Z,3.58
2023-05-24T04:12:17.602Z,3.08
2023-05-24T04:13:19.436Z,3.00
2023-05-24T04:14:22.246Z,3.22
2023-05-24T04:15:24.299Z,3.05
2023-05-24T04:16:27.484Z,3.47
2023-05-24T04:17:32.714Z,3.13
2023-05-24T04:18:35.759Z,2.92
2023-05-24T04:19:37.677Z,3.78
2023-05-24T04:20:42.098Z,3.28
2023-05-24T04:21:45.373Z,3.38
2023-05-24T04:22:48.234Z,3.40
2023-05-24T04:23:50.114Z,3.70
2023-05-24T04:24:53.128Z,3.15
2023-05-24T04:25:55.038Z,3.15
2023-05-24T04:26:58.433Z,2.92
2023-05-24T04:28:02.156Z,3.38
2023-05-24T04:29:05.010Z,3.40
2023-05-24T04:30:09.229Z,3.63
2023-05-24T04:31:12.390Z,3.22
2023-05-24T04:32:14.776Z,3.45
2023-05-24T04:33:17.863Z,3.75
2023-05-24T04:34:22.163Z,3.80
2023-05-24T04:35:25.474Z,3.40
2023-05-24T04:36:29.057Z,3.00
2023-05-24T04:37:32.218Z,3.05
2023-05-24T04:38:36.151Z,3.80
2023-05-24T04:39:39.043Z,3.13
2023-05-24T04:40:41.542Z,3.60
2023-05-24T04:41:44.864Z,2.80
2023-05-24T04:42:47.080Z,3.28
2023-05-24T04:43:50.259Z,3.78
2023-05-24T04:44:52.128Z,3.20
2023-05-24T04:45:55.606Z,3.60
2023-05-24T04:46:57.945Z,3.35
2023-05-24T04:48:00.919Z,3.85
2023-05-24T04:49:02.824Z,4.07
2023-05-24T04:50:06.583Z,4.03
2023-05-24T04:51:08.515Z,3.25
2023-05-24T04:52:12.729Z,3.53
2023-05-24T04:53:14.593Z,3.78
2023-05-24T04:54:18.194Z,3.45
2023-05-24T04:55:20.402Z,3.92
2023-05-24T04:56:23.228Z,3.97
2023-05-24T04:57:25.115Z,3.15
2023-05-24T04:58:27.949Z,3.45
2023-05-24T04:59:30.076Z,4.28
2023-05-24T05:00:33.394Z,3.70
2023-05-24T05:01:35.636Z,3.30
2023-05-24T05:02:38.778Z,3.45
2023-05-24T05:03:41.097Z,3.53
2023-05-24T05:04:44.220Z,3.45
2023-05-24T05:05:46.588Z,3.72
2023-05-24T05:06:49.936Z,4.38
2023-05-24T05:07:53.237Z,4.13
2023-05-24T05:08:56.136Z,3.53
2023-05-24T05:09:58.015Z,3.70
2023-05-24T05:11:01.159Z,3.70
2023-05-24T05:12:03.132Z,4.00
2023-05-24T05:13:05.970Z,3.55
2023-05-24T05:14:09.581Z,4.28
2023-05-24T05:15:13.544Z,4.32
2023-05-24T05:16:19.026Z,4.28
2023-05-24T05:17:21.727Z,4.07
2023-05-24T05:18:24.555Z,4.20
2023-05-24T05:19:26.643Z,3.45
2023-05-24T05:20:29.629Z,3.70
2023-05-24T05:21:33.039Z,4.28
2023-05-24T05:22:35.956Z,3.53
2023-05-24T05:23:39.849Z,3.17
2023-05-24T05:24:42.748Z,3.30
2023-05-24T05:25:44.667Z,4.32
2023-05-24T05:26:47.567Z,3.85
2023-05-24T05:27:50.439Z,3.10
2023-05-24T05:28:52.365Z,3.45
2023-05-24T05:29:55.223Z,4.15
2023-05-24T05:30:57.238Z,4.65
2023-05-24T05:32:00.206Z,4.30
2023-05-24T05:33:02.230Z,4.32
2023-05-24T05:34:05.185Z,3.47
2023-05-24T05:35:08.264Z,3.63
2023-05-24T05:36:11.110Z,3.75
2023-05-24T05:37:13.973Z,4.38
2023-05-24T05:38:16.847Z,3.42
2023-05-24T05:39:20.051Z,4.03
2023-05-24T05:40:22.938Z,3.95
2023-05-24T05:41:24.839Z,3.80
2023-05-24T05:42:27.672Z,3.92
2023-05-24T05:43:29.622Z,3.90
2023-05-24T05:44:32.457Z,3.95
2023-05-24T05:45:34.311Z,4.25
2023-05-24T05:46:37.225Z,3.90
2023-05-24T05:47:40.622Z,4.18
2023-05-24T05:48:43.268Z,3.15
2023-05-24T05:49:47.811Z,4.40
2023-05-24T05:50:49.658Z,5.22
2023-05-24T05:51:52.934Z,3.88
2023-05-24T05:52:54.785Z,3.90
2023-05-24T05:53:57.681Z,4.10
2023-05-24T05:55:01.446Z,4.13
2023-05-24T05:56:04.409Z,3.72
2023-05-24T05:57:08.271Z,4.45
2023-05-24T05:58:11.911Z,4.38
2023-05-24T05:59:15.599Z,4.07
2023-05-24T06:00:19.423Z,4.43
2023-05-24T06:01:21.379Z,4.22
2023-05-24T06:02:24.326Z,4.60
2023-05-24T06:03:26.482Z,3.92
2023-05-24T06:04:29.578Z,4.50
2023-05-24T06:05:31.483Z,4.03
2023-05-24T06:06:34.305Z,4.60
2023-05-24T06:07:37.473Z,3.67
2023-05-24T06:08:40.919Z,4.63
2023-05-24T06:09:42.781Z,3.60
2023-05-24T06:10:46.996Z,3.97
2023-05-24T06:11:48.825Z,4.25
2023-05-24T06:12:51.736Z,3.90
2023-05-24T06:13:53.718Z,4.30
2023-05-24T06:14:57.554Z,5.05
2023-05-24T06:16:01.750Z,3.80
2023-05-24T06:17:04.326Z,4.45
2023-05-24T06:18:07.469Z,4.20
2023-05-24T06:19:10.628Z,4.80
2023-05-24T06:20:16.860Z,4.80
2023-05-24T06:21:19.701Z,4.78
2023-05-24T06:22:21.678Z,3.90
2023-05-24T06:23:24.568Z,3.58
2023-05-24T06:24:28.463Z,4.68
2023-05-24T06:25:32.932Z,3.85
2023-05-24T06:26:36.916Z,4.35
2023-05-24T06:27:39.748Z,4.60
2023-05-24T06:28:41.649Z,4.82
2023-05-24T06:29:44.652Z,4.07
2023-05-24T06:30:47.525Z,4.28
2023-05-24T06:31:51.229Z,4.63
2023-05-24T06:32:53.311Z,3.50
2023-05-24T06:34:03.748Z,4.32
2023-05-24T06:35:08.840Z,4.43
2023-05-24T06:36:11.877Z,3.72
2023-05-24T06:37:15.023Z,4.35
2023-05-24T06:38:18.548Z,4.65
2023-05-24T06:39:20.908Z,4.00
2023-05-24T06:40:23.794Z,3.83
2023-05-24T06:41:27.047Z,3.90
2023-05-24T06:42:31.318Z,3.92
2023-05-24T06:43:33.470Z,4.15
2023-05-24T06:44:36.392Z,3.40
2023-05-24T06:45:38.364Z,4.00
2023-05-24T06:46:41.446Z,4.40
2023-05-24T06:47:44.475Z,4.20
2023-05-24T06:48:47.548Z,4.75
2023-05-24T06:49:51.169Z,4.20
2023-05-24T06:50:53.048Z,4.50
2023-05-24T06:51:56.154Z,4.20
2023-05-24T06:52:59.004Z,3.72
2023-05-24T06:54:00.986Z,4.35
2023-05-24T06:55:04.142Z,3.97
2023-05-24T06:56:09.247Z,4.10
2023-05-24T06:57:12.106Z,4.10
2023-05-24T06:58:16.122Z,3.67
2023-05-24T06:59:18.931Z,3.28
2023-05-24T07:00:22.372Z,3.70
2023-05-24T07:01:24.369Z,4.10
2023-05-24T07:02:28.589Z,4.10
2023-05-24T07:03:30.832Z,3.97
2023-05-24T07:04:33.720Z,4.10
2023-05-24T07:05:36.044Z,4.47
2023-05-24T07:06:39.339Z,3.80
2023-05-24T07:07:43.590Z,3.97
2023-05-24T07:08:46.566Z,3.72
2023-05-24T07:09:48.684Z,4.13
2023-05-24T07:10:51.983Z,4.10
2023-05-24T07:11:53.927Z,4.03
2023-05-24T07:12:56.766Z,4.00
2023-05-24T07:14:00.210Z,3.88
2023-05-24T07:15:04.964Z,3.97
2023-05-24T07:16:07.238Z,3.50
2023-05-24T07:17:10.122Z,3.90
2023-05-24T07:18:12.978Z,4.15
2023-05-24T07:19:16.067Z,4.40
2023-05-24T07:20:18.317Z,4.50
2023-05-24T07:21:21.416Z,4.60
2023-05-24T07:22:25.257Z,4.25
2023-05-24T07:23:28.163Z,3.38
2023-05-24T07:24:30.202Z,3.70
2023-05-24T07:25:33.387Z,3.30
2023-05-24T07:26:35.239Z,3.20
2023-05-24T07:27:38.090Z,4.53
2023-05-24T07:28:40.477Z,3.20
2023-05-24T07:29:46.888Z,3.75
2023-05-24T07:30:51.750Z,3.63
2023-05-24T07:31:57.941Z,3.17
2023-05-24T07:33:02.021Z,3.40
2023-05-24T07:34:04.087Z,3.75
2023-05-24T07:35:08.152Z,3.60
2023-05-24T07:36:10.953Z,3.63
2023-05-24T07:37:13.847Z,3.88
2023-05-24T07:38:16.014Z,3.40
2023-05-24T07:39:19.047Z,3.92
2023-05-24T07:40:23.300Z,4.30
2023-05-24T07:41:26.776Z,3.95
2023-05-24T07:42:29.657Z,3.20
2023-05-24T07:43:31.533Z,3.42
2023-05-24T07:44:34.875Z,3.05
2023-05-24T07:45:38.128Z,2.70
2023-05-24T07:46:40.962Z,2.95
2023-05-24T07:47:42.961Z,3.47
2023-05-24T07:48:46.092Z,3.75
2023-05-24T07:49:48.997Z,3.22
2023-05-24T07:50:52.506Z,3.75
2023-05-24T07:51:57.785Z,3.50
2023-05-24T07:52:59.663Z,3.35
2023-05-24T07:54:02.508Z,3.47
2023-05-24T07:55:05.493Z,3.30
2023-05-24T07:56:09.889Z,3.55
2023-05-24T07:57:12.953Z,3.53
2023-05-24T07:58:14.786Z,3.33
2023-05-24T07:59:17.643Z,3.30
2023-05-24T08:00:21.832Z,3.97
2023-05-24T08:01:25.337Z,3.80
2023-05-24T08:02:28.868Z,3.50
2023-05-24T08:03:30.899Z,3.55
2023-05-24T08:04:33.981Z,3.50
2023-05-24T08:05:36.048Z,3.92
2023-05-24T08:06:39.018Z,4.18
2023-05-24T08:07:42.643Z,3.90
2023-05-24T08:08:45.831Z,3.80
2023-05-24T08:09:49.137Z,3.70
2023-05-24T08:10:51.143Z,4.13
2023-05-24T08:11:53.946Z,3.70
2023-05-24T08:12:56.181Z,3.65
2023-05-24T08:13:59.071Z,3.65
2023-05-24T08:15:01.956Z,4.88
2023-05-24T08:16:03.917Z,3.90
2023-05-24T08:17:08.157Z,3.05
2023-05-24T08:18:11.109Z,2.90
2023-05-24T08:19:13.048Z,3.15
2023-05-24T08:20:16.939Z,2.85
2023-05-24T08:21:19.117Z,3.30
2023-05-24T08:22:22.072Z,3.70
2023-05-24T08:23:24.019Z,3.67
2023-05-24T08:24:26.820Z,4.55
2023-05-24T08:25:28.749Z,3.85
2023-05-24T08:26:31.616Z,4.05
2023-05-24T08:27:33.740Z,3.67
2023-05-24T08:28:37.219Z,3.50
2023-05-24T08:29:39.373Z,3.30
2023-05-24T08:30:42.172Z,3.42
2023-05-24T08:31:45.205Z,3.20
2023-05-24T08:32:49.063Z,3.60
2023-05-24T08:33:52.825Z,4.05
2023-05-24T08:35:06.650Z,3.58
2023-05-24T08:36:19.251Z,3.60
2023-05-24T08:37:22.540Z,3.97
2023-05-24T08:38:25.416Z,2.95
2023-05-24T08:39:27.317Z,3.70
2023-05-24T08:40:30.155Z,4.45
2023-05-24T08:41:37.242Z,4.47
2023-05-24T08:42:40.961Z,4.35
2023-05-24T08:43:43.594Z,3.92
2023-05-24T08:44:50.918Z,5.47
2023-05-24T08:45:54.313Z,3.90
2023-05-24T08:46:58.760Z,4.32
2023-05-24T08:48:03.534Z,4.53
2023-05-24T08:49:07.629Z,3.22
2023-05-24T08:50:11.230Z,3.80
2023-05-24T08:51:15.088Z,4.38
2023-05-24T08:52:21.698Z,4.20
2023-05-24T08:53:25.140Z,3.90
2023-05-24T08:54:27.437Z,4.57
2023-05-24T08:55:33.279Z,3.92
2023-05-24T08:56:36.408Z,4.05
2023-05-24T08:57:41.596Z,4.20
2023-05-24T08:58:44.108Z,4.70
2023-05-24T08:59:47.003Z,4.20
2023-05-24T09:00:48.840Z,3.90
2023-05-24T09:01:54.774Z,4.43
2023-05-24T09:02:59.605Z,4.38
2023-05-24T09:04:05.770Z,5.88
2023-05-24T09:05:10.672Z,4.07
2023-05-24T09:06:14.547Z,4.50
2023-05-24T09:07:19.212Z,4.15
2023-05-24T09:08:21.404Z,4.28
2023-05-24T09:09:28.554Z,3.25
2023-05-24T09:10:45.196Z,3.38
2023-05-24T09:11:58.353Z,3.85
2023-05-24T09:13:04.170Z,3.92
2023-05-24T09:14:06.372Z,3.70
2023-05-24T09:15:09.931Z,3.55
2023-05-24T09:16:12.090Z,4.55
2023-05-24T09:17:16.011Z,4.25
2023-05-24T09:18:18.065Z,4.15
2023-05-24T09:19:22.370Z,4.00
2023-05-24T09:20:24.323Z,3.17
2023-05-24T09:21:27.627Z,4.25
2023-05-24T09:22:32.510Z,3.95
2023-05-24T09:23:35.697Z,4.70
2023-05-24T09:24:41.532Z,3.90
2023-05-24T09:25:46.047Z,4.20
2023-05-24T09:26:50.845Z,4.22
2023-05-24T09:27:53.955Z,4.53
2023-05-24T09:28:57.480Z,4.25
2023-05-24T09:29:59.532Z,4.93
2023-05-24T09:31:06.312Z,4.63
2023-05-24T09:32:11.210Z,4.45
2023-05-24T09:33:14.252Z,4.38
2023-05-24T09:34:16.508Z,4.80
2023-05-24T09:35:20.631Z,4.43
2023-05-24T09:36:23.070Z,4.00
2023-05-24T09:37:32.292Z,4.05
2023-05-24T09:38:36.124Z,3.60
2023-05-24T09:39:39.511Z,5.22
2023-05-24T09:40:42.460Z,4.40
2023-05-24T09:41:46.203Z,4.45
2023-05-24T09:42:51.482Z,4.38
2023-05-24T09:43:54.454Z,3.97
2023-05-24T09:45:01.616Z,3.28
2023-05-24T09:46:05.701Z,4.43
2023-05-24T09:47:08.981Z,4.32
2023-05-24T09:48:12.780Z,4.28
2023-05-24T09:49:15.688Z,3.17
2023-05-24T09:50:18.920Z,3.70
2023-05-24T09:51:23.262Z,3.25
2023-05-24T09:52:25.240Z,4.80
2023-05-24T09:53:28.628Z,4.30
2023-05-24T09:54:32.639Z,3.53
2023-05-24T09:55:37.787Z,2.70
2023-05-24T09:56:41.382Z,3.60
2023-05-24T09:57:44.230Z,3.28
2023-05-24T09:58:47.267Z,4.47
2023-05-24T09:59:52.031Z,3.78
2023-05-24T10:01:06.560Z,2.70
2023-05-24T10:02:10.438Z,4.50
2023-05-24T10:03:15.032Z,3.60
2023-05-24T10:04:17.069Z,4.50
2023-05-24T10:05:21.780Z,4.50
2023-05-24T10:06:25.056Z,3.90
2023-05-24T10:07:28.423Z,4.63
2023-05-24T10:08:31.114Z,2.90
2023-05-24T10:09:35.299Z,3.60
2023-05-24T10:10:37.228Z,4.50
2023-05-24T10:11:41.094Z,4.38
2023-05-24T10:12:46.673Z,4.18
2023-05-24T10:13:51.112Z,3.78
2023-05-24T10:14:57.466Z,3.53
2023-05-24T10:16:00.417Z,3.65
2023-05-24T10:17:05.065Z,5.07
2023-05-24T10:18:11.248Z,3.72
2023-05-24T10:19:15.214Z,4.07
2023-05-24T10:20:18.928Z,3.78
2023-05-24T10:21:25.888Z,4.30
2023-05-24T10:22:29.058Z,3.50
2023-05-24T10:23:33.486Z,4.20
2023-05-24T10:24:39.172Z,4.10
2023-05-24T10:25:48.405Z,3.60
2023-05-24T10:26:52.687Z,3.80
2023-05-24T10:27:57.433Z,3.90
2023-05-24T10:29:08.861Z,3.30
2023-05-24T10:30:18.040Z,3.85
2023-05-24T10:31:25.539Z,4.10
2023-05-24T10:32:32.023Z,3.47
2023-05-24T10:33:37.456Z,3.42
2023-05-24T10:34:42.111Z,4.05
2023-05-24T10:35:45.796Z,4.18
2023-05-24T10:36:51.350Z,4.55
2023-05-24T10:37:54.606Z,4.20
2023-05-24T10:38:58.047Z,4.47
2023-05-24T10:40:00.815Z,4.07
2023-05-24T10:41:03.718Z,4.50
2023-05-24T10:42:09.519Z,3.83
2023-05-24T10:43:12.804Z,4.70
2023-05-24T10:44:20.175Z,4.57
2023-05-24T10:45:38.256Z,4.43
2023-05-24T10:47:03.448Z,3.83
2023-05-24T10:48:11.321Z,4.32
2023-05-24T10:49:15.100Z,4.15
2023-05-24T10:50:18.253Z,3.30
2023-05-24T10:51:38.630Z,3.55
2023-05-24T10:52:43.590Z,4.38
2023-05-24T10:53:46.158Z,3.80
2023-05-24T10:55:05.377Z,4.20
2023-05-24T10:56:10.545Z,3.75
2023-05-24T10:57:13.380Z,3.78
2023-05-24T10:58:16.172Z,3.80
2023-05-24T10:59:44.168Z,3.50
2023-05-24T11:00:48.945Z,3.67
2023-05-24T11:01:59.181Z,4.05
2023-05-24T11:03:02.420Z,4.45
2023-05-24T11:04:10.110Z,4.15
2023-05-24T11:05:13.070Z,3.78
2023-05-24T11:06:15.954Z,5.13
2023-05-24T11:07:20.830Z,3.45
2023-05-24T11:08:31.706Z,3.65
2023-05-24T11:09:34.906Z,3.78
2023-05-24T11:10:37.236Z,3.72
2023-05-24T11:11:40.138Z,3.47
2023-05-24T11:12:43.195Z,3.38
2023-05-24T11:13:47.163Z,3.95
2023-05-24T11:14:52.020Z,3.65
2023-05-24T11:15:53.979Z,3.78
2023-05-24T11:16:57.441Z,3.67
2023-05-24T11:18:14.788Z,3.78
2023-05-24T11:19:19.244Z,3.55
2023-05-24T11:20:22.817Z,3.90
2023-05-24T11:21:26.779Z,3.17
2023-05-24T11:22:30.167Z,3.20
2023-05-24T11:23:34.882Z,3.60
2023-05-24T11:24:39.109Z,4.03
2023-05-24T11:25:41.051Z,3.80
2023-05-24T11:26:44.890Z,3.45
2023-05-24T11:27:48.422Z,3.10
2023-05-24T11:28:50.588Z,4.10
2023-05-24T11:29:53.793Z,3.25
2023-05-24T11:30:55.694Z,2.85
2023-05-24T11:32:04.118Z,3.60
2023-05-24T11:33:08.007Z,3.00
2023-05-24T11:34:11.828Z,3.95
2023-05-24T11:35:15.976Z,3.42
2023-05-24T11:36:17.953Z,2.80
2023-05-24T11:37:38.538Z,2.70
2023-05-24T11:38:50.983Z,3.22
2023-05-24T11:39:54.072Z,3.55
2023-05-24T11:40:58.641Z,3.28
2023-05-24T11:42:02.448Z,3.47
2023-05-24T11:43:06.623Z,3.50
2023-05-24T11:44:12.808Z,2.90
2023-05-24T11:45:15.607Z,3.03
2023-05-24T11:46:22.459Z,2.90
2023-05-24T11:47:25.609Z,3.20
2023-05-24T11:48:29.005Z,3.05
2023-05-24T11:49:31.946Z,2.88
2023-05-24T11:50:48.802Z,3.85
2023-05-24T11:51:55.344Z,2.90
2023-05-24T11:53:02.803Z,3.03
2023-05-24T11:54:07.088Z,3.20
2023-05-24T11:55:15.702Z,3.65
2023-05-24T11:56:18.619Z,3.80
2023-05-24T11:57:30.550Z,2.90
2023-05-24T11:58:41.314Z,3.22
2023-05-24T11:59:44.177Z,2.97
2023-05-24T12:00:47.941Z,2.60
2023-05-24T12:01:59.191Z,2.60
2023-05-24T12:03:05.238Z,4.00
2023-05-24T12:04:07.584Z,2.70
2023-05-24T12:05:14.036Z,2.80
2023-05-24T12:06:15.942Z,2.53
2023-05-24T12:07:18.866Z,3.53
2023-05-24T12:08:21.189Z,2.50
2023-05-24T12:09:25.741Z,3.15
2023-05-24T12:10:27.623Z,3.40
2023-05-24T12:11:30.426Z,3.00
2023-05-24T12:12:45.258Z,3.20
2023-05-24T12:13:49.054Z,2.50
2023-05-24T12:14:56.068Z,2.60
2023-05-24T12:15:58.166Z,2.03
2023-05-24T12:17:01.774Z,2.60
2023-05-24T12:18:03.846Z,2.80
2023-05-24T12:19:13.994Z,3.65
2023-05-24T12:20:23.607Z,3.08
2023-05-24T12:21:25.798Z,3.40
2023-05-24T12:22:31.758Z,2.50
2023-05-24T12:23:37.247Z,3.05
2023-05-24T12:24:42.264Z,2.83
2023-05-24T12:25:44.229Z,2.78
2023-05-24T12:26:49.591Z,2.40
2023-05-24T12:27:55.819Z,2.92
2023-05-24T12:29:03.024Z,2.50
2023-05-24T12:30:10.401Z,2.90
2023-05-24T12:31:13.258Z,2.95
2023-05-24T12:32:16.067Z,2.58
2023-05-24T12:33:19.207Z,3.00
2023-05-24T12:34:22.544Z,3.22
2023-05-24T12:35:26.508Z,2.95
2023-05-24T12:36:30.150Z,2.55
2023-05-24T12:37:33.523Z,2.83
2023-05-24T12:38:36.363Z,2.70
2023-05-24T12:39:42.580Z,3.28
2023-05-24T12:40:45.433Z,2.75
2023-05-24T12:41:53.917Z,2.75
2023-05-24T12:42:59.208Z,2.60
2023-05-24T12:44:01.364Z,2.40
2023-05-24T12:45:04.273Z,2.38
2023-05-24T12:46:06.837Z,2.95
2023-05-24T12:47:10.493Z,2.70
2023-05-24T12:48:13.022Z,3.20
2023-05-24T12:49:15.964Z,2.55
2023-05-24T12:50:18.370Z,2.63
2023-05-24T12:51:21.292Z,2.50
2023-05-24T12:52:24.721Z,3.05
2023-05-24T12:53:27.775Z,2.35
2023-05-24T12:54:30.994Z,2.75
2023-05-24T12:55:34.225Z,2.60
2023-05-24T12:56:38.062Z,3.15
2023-05-24T12:57:40.665Z,2.75
2023-05-24T12:58:43.580Z,3.15
2023-05-24T12:59:45.613Z,3.17
2023-05-24T13:00:50.313Z,2.97
2023-05-24T13:01:52.623Z,2.88
2023-05-24T13:02:58.569Z,2.60
2023-05-24T13:04:07.190Z,2.75
2023-05-24T13:05:10.499Z,2.78
2023-05-24T13:06:13.219Z,2.97
2023-05-24T13:07:16.097Z,2.10
2023-05-24T13:08:18.969Z,2.70
2023-05-24T13:09:23.148Z,2.30
2023-05-24T13:10:27.602Z,2.50
2023-05-24T13:11:31.194Z,2.20
2023-05-24T13:12:34.259Z,2.78
2023-05-24T13:13:38.193Z,2.50
2023-05-24T13:14:40.097Z,2.00
2023-05-24T13:15:44.580Z,2.08
2023-05-24T13:16:47.029Z,2.10
2023-05-24T13:17:50.107Z,2.20
2023-05-24T13:18:53.107Z,2.40
2023-05-24T13:19:57.392Z,2.88
2023-05-24T13:21:00.572Z,2.83
2023-05-24T13:22:03.432Z,2.65
2023-05-24T13:23:05.312Z,2.90
2023-05-24T13:24:08.641Z,4.32
2023-05-24T13:25:11.785Z,4.45
2023-05-24T13:26:14.657Z,2.22
2023-05-24T13:27:17.934Z,2.58
2023-05-24T13:28:20.827Z,2.90
2023-05-24T13:29:36.543Z,2.75
2023-05-24T13:30:45.713Z,2.10
2023-05-24T13:31:47.778Z,2.63
2023-05-24T13:32:50.629Z,3.00
2023-05-24T13:33:53.649Z,2.92
2023-05-24T13:34:56.500Z,2.15
2023-05-24T13:35:58.488Z,2.55
2023-05-24T13:37:01.615Z,2.60
2023-05-24T13:38:04.666Z,2.08
2023-05-24T13:40:16.112Z,2.60
2023-05-24T13:41:18.098Z,2.25
2023-05-24T13:42:23.041Z,2.72
2023-05-24T13:43:26.225Z,2.70
2023-05-24T13:44:28.461Z,1.95
2023-05-24T13:45:33.108Z,2.30
2023-05-24T13:46:38.348Z,2.53
2023-05-24T13:47:41.740Z,2.40
2023-05-24T13:48:43.755Z,2.80
2023-05-24T13:49:47.264Z,2.58
2023-05-24T13:50:50.189Z,1.95
2023-05-24T13:51:54.886Z,2.20
2023-05-24T13:53:00.659Z,2.85
2023-05-24T13:54:03.241Z,2.65
2023-05-24T13:55:07.350Z,2.42
2023-05-24T13:56:09.247Z,2.90
2023-05-24T13:57:12.077Z,2.50
2023-05-24T13:58:16.580Z,2.50
2023-05-24T13:59:18.559Z,2.78
2023-05-24T14:00:22.417Z,2.00
2023-05-24T14:01:24.529Z,2.55
2023-05-24T14:02:27.687Z,2.60
2023-05-24T14:03:29.559Z,2.75
2023-05-24T14:04:32.484Z,2.35
2023-05-24T14:05:36.050Z,2.58
2023-05-24T14:06:38.349Z,2.45
2023-05-24T14:07:41.438Z,2.25
2023-05-24T14:08:43.484Z,2.90
2023-05-24T14:09:46.626Z,2.28
2023-05-24T14:10:49.909Z,2.88
2023-05-24T14:11:52.871Z,2.58
2023-05-24T14:13:12.866Z,2.10